sensor_id;sensor_type;location;lat;lon;timestamp;P1;durP1;ratioP1;P2;durP2;ratioP2
29210;SDS011;16250;49.932;10.980;2023-08-07T00:02:04;0.90;;;0.90;;
29210;SDS011;16250;49.932;10.980;2023-08-07T00:04:29;1.17;;;1.08;;
29210;SDS011;16250;49.932;10.980;2023-08-07T00:06:55;1.50;;;0.90;;
29210;SDS011;16250;49.932;10.980;2023-08-07T00:09:20;1.80;;;1.00;;
29210;SDS011;16250;49.932;10.980;2023-08-07T00:11:46;1.10;;;1.00;;
29210;SDS011;16250;49.932;10.980;2023-08-07T00:14:11;0.90;;;0.90;;
29210;SDS011;16250;49.932;10.980;2023-08-07T00:16:36;0.90;;;0.90;;
29210;SDS011;16250;49.932;10.980;2023-08-07T00:19:02;0.90;;;0.90;;
29210;SDS011;16250;49.932;10.980;2023-08-07T00:21:28;1.33;;;1.23;;
29210;SDS011;16250;49.932;10.980;2023-08-07T00:23:53;0.90;;;0.90;;
29210;SDS011;16250;49.932;10.980;2023-08-07T00:26:20;1.67;;;0.80;;
29210;SDS011;16250;49.932;10.980;2023-08-07T00:28:45;0.93;;;0.90;;
29210;SDS011;16250;49.932;10.980;2023-08-07T00:31:11;0.75;;;0.70;;
29210;SDS011;16250;49.932;10.980;2023-08-07T00:33:39;3.38;;;1.10;;
29210;SDS011;16250;49.932;10.980;2023-08-07T00:36:04;0.80;;;0.80;;
29210;SDS011;16250;49.932;10.980;2023-08-07T00:38:29;1.10;;;1.00;;
29210;SDS011;16250;49.932;10.980;2023-08-07T00:40:55;2.90;;;1.10;;
29210;SDS011;16250;49.932;10.980;2023-08-07T00:43:20;3.60;;;1.00;;
29210;SDS011;16250;49.932;10.980;2023-08-07T00:45:46;0.98;;;0.95;;
29210;SDS011;16250;49.932;10.980;2023-08-07T00:48:12;1.60;;;1.00;;
29210;SDS011;16250;49.932;10.980;2023-08-07T00:50:38;1.30;;;1.20;;
29210;SDS011;16250;49.932;10.980;2023-08-07T00:53:05;2.10;;;1.30;;
29210;SDS011;16250;49.932;10.980;2023-08-07T00:55:30;1.17;;;1.08;;
29210;SDS011;16250;49.932;10.980;2023-08-07T00:57:57;1.67;;;1.00;;
29210;SDS011;16250;49.932;10.980;2023-08-07T01:00:23;1.42;;;1.15;;
29210;SDS011;16250;49.932;10.980;2023-08-07T01:02:50;1.83;;;1.30;;
29210;SDS011;16250;49.932;10.980;2023-08-07T01:05:16;2.15;;;1.20;;
29210;SDS011;16250;49.932;10.980;2023-08-07T01:07:43;1.80;;;1.20;;
29210;SDS011;16250;49.932;10.980;2023-08-07T01:10:08;1.42;;;1.20;;
29210;SDS011;16250;49.932;10.980;2023-08-07T01:12:36;1.50;;;1.40;;
29210;SDS011;16250;49.932;10.980;2023-08-07T01:15:12;1.77;;;1.42;;
29210;SDS011;16250;49.932;10.980;2023-08-07T01:17:40;1.58;;;1.48;;
29210;SDS011;16250;49.932;10.980;2023-08-07T01:20:07;1.40;;;1.30;;
29210;SDS011;16250;49.932;10.980;2023-08-07T01:22:33;2.40;;;1.45;;
29210;SDS011;16250;49.932;10.980;2023-08-07T01:24:59;2.10;;;1.90;;
29210;SDS011;16250;49.932;10.980;2023-08-07T01:27:35;1.80;;;1.70;;
29210;SDS011;16250;49.932;10.980;2023-08-07T01:30:12;1.90;;;1.80;;
29210;SDS011;16250;49.932;10.980;2023-08-07T01:32:47;2.20;;;2.00;;
29210;SDS011;16250;49.932;10.980;2023-08-07T01:35:46;2.38;;;1.90;;
29210;SDS011;16250;49.932;10.980;2023-08-07T01:38:12;2.75;;;2.13;;
29210;SDS011;16250;49.932;10.980;2023-08-07T01:40:39;3.30;;;2.33;;
29210;SDS011;16250;49.932;10.980;2023-08-07T01:43:05;3.65;;;2.30;;
29210;SDS011;16250;49.932;10.980;2023-08-07T01:45:31;2.67;;;2.47;;
29210;SDS011;16250;49.932;10.980;2023-08-07T01:47:56;3.47;;;2.40;;
29210;SDS011;16250;49.932;10.980;2023-08-07T01:50:22;3.65;;;2.80;;
29210;SDS011;16250;49.932;10.980;2023-08-07T01:52:49;3.33;;;2.95;;
29210;SDS011;16250;49.932;10.980;2023-08-07T01:55:17;2.85;;;2.40;;
29210;SDS011;16250;49.932;10.980;2023-08-07T01:57:52;4.00;;;2.60;;
29210;SDS011;16250;49.932;10.980;2023-08-07T02:00:18;2.70;;;2.50;;
29210;SDS011;16250;49.932;10.980;2023-08-07T02:02:43;2.80;;;2.53;;
29210;SDS011;16250;49.932;10.980;2023-08-07T02:05:10;3.00;;;2.70;;
29210;SDS011;16250;49.932;10.980;2023-08-07T02:07:36;3.30;;;3.00;;
29210;SDS011;16250;49.932;10.980;2023-08-07T02:10:02;3.30;;;2.53;;
29210;SDS011;16250;49.932;10.980;2023-08-07T02:12:27;3.30;;;2.88;;
29210;SDS011;16250;49.932;10.980;2023-08-07T02:14:54;4.90;;;3.10;;
29210;SDS011;16250;49.932;10.980;2023-08-07T02:17:20;3.78;;;3.47;;
29210;SDS011;16250;49.932;10.980;2023-08-07T02:19:46;3.30;;;3.00;;
29210;SDS011;16250;49.932;10.980;2023-08-07T02:22:12;3.25;;;2.95;;
29210;SDS011;16250;49.932;10.980;2023-08-07T02:24:37;3.17;;;2.97;;
29210;SDS011;16250;49.932;10.980;2023-08-07T02:27:03;3.40;;;3.10;;
29210;SDS011;16250;49.932;10.980;2023-08-07T02:29:28;3.47;;;2.70;;
29210;SDS011;16250;49.932;10.980;2023-08-07T02:31:56;3.50;;;2.80;;
29210;SDS011;16250;49.932;10.980;2023-08-07T02:34:21;2.78;;;2.58;;
29210;SDS011;16250;49.932;10.980;2023-08-07T02:36:47;2.97;;;2.60;;
29210;SDS011;16250;49.932;10.980;2023-08-07T02:39:13;2.65;;;2.30;;
29210;SDS011;16250;49.932;10.980;2023-08-07T02:41:38;2.35;;;2.13;;
29210;SDS011;16250;49.932;10.980;2023-08-07T02:44:04;3.55;;;2.00;;
29210;SDS011;16250;49.932;10.980;2023-08-07T02:46:29;2.08;;;1.77;;
29210;SDS011;16250;49.932;10.980;2023-08-07T02:48:55;1.50;;;1.40;;
29210;SDS011;16250;49.932;10.980;2023-08-07T02:51:20;2.00;;;1.80;;
29210;SDS011;16250;49.932;10.980;2023-08-07T02:53:45;1.90;;;1.67;;
29210;SDS011;16250;49.932;10.980;2023-08-07T02:56:11;2.20;;;1.80;;
29210;SDS011;16250;49.932;10.980;2023-08-07T02:58:36;2.70;;;1.65;;
29210;SDS011;16250;49.932;10.980;2023-08-07T03:01:05;1.70;;;1.60;;
29210;SDS011;16250;49.932;10.980;2023-08-07T03:03:33;1.80;;;1.70;;
29210;SDS011;16250;49.932;10.980;2023-08-07T03:05:59;2.53;;;1.30;;
29210;SDS011;16250;49.932;10.980;2023-08-07T03:08:24;2.80;;;1.75;;
29210;SDS011;16250;49.932;10.980;2023-08-07T03:10:53;2.40;;;1.58;;
29210;SDS011;16250;49.932;10.980;2023-08-07T03:13:24;2.92;;;1.60;;
29210;SDS011;16250;49.932;10.980;2023-08-07T03:16:13;1.90;;;1.48;;
29210;SDS011;16250;49.932;10.980;2023-08-07T03:18:38;3.92;;;1.80;;
29210;SDS011;16250;49.932;10.980;2023-08-07T03:21:03;1.80;;;1.52;;
29210;SDS011;16250;49.932;10.980;2023-08-07T03:23:28;1.50;;;1.40;;
29210;SDS011;16250;49.932;10.980;2023-08-07T03:26:06;1.95;;;1.67;;
29210;SDS011;16250;49.932;10.980;2023-08-07T03:28:33;2.08;;;1.50;;
29210;SDS011;16250;49.932;10.980;2023-08-07T03:30:59;1.60;;;1.45;;
29210;SDS011;16250;49.932;10.980;2023-08-07T03:33:26;1.92;;;1.60;;
29210;SDS011;16250;49.932;10.980;2023-08-07T03:35:52;4.10;;;1.70;;
29210;SDS011;16250;49.932;10.980;2023-08-07T03:38:18;1.77;;;1.63;;
29210;SDS011;16250;49.932;10.980;2023-08-07T03:40:44;1.67;;;1.58;;
29210;SDS011;16250;49.932;10.980;2023-08-07T03:43:10;1.98;;;1.50;;
29210;SDS011;16250;49.932;10.980;2023-08-07T03:45:35;2.47;;;1.50;;
29210;SDS011;16250;49.932;10.980;2023-08-07T03:48:01;1.73;;;1.50;;
29210;SDS011;16250;49.932;10.980;2023-08-07T03:50:27;1.55;;;1.45;;
29210;SDS011;16250;49.932;10.980;2023-08-07T03:52:55;1.88;;;1.48;;
29210;SDS011;16250;49.932;10.980;2023-08-07T03:55:20;1.98;;;1.50;;
29210;SDS011;16250;49.932;10.980;2023-08-07T03:57:46;1.77;;;1.65;;
29210;SDS011;16250;49.932;10.980;2023-08-07T04:00:12;2.03;;;1.63;;
29210;SDS011;16250;49.932;10.980;2023-08-07T04:02:41;2.97;;;1.70;;
29210;SDS011;16250;49.932;10.980;2023-08-07T04:05:08;1.73;;;1.50;;
29210;SDS011;16250;49.932;10.980;2023-08-07T04:07:34;1.92;;;1.50;;
29210;SDS011;16250;49.932;10.980;2023-08-07T04:09:59;2.03;;;1.50;;
29210;SDS011;16250;49.932;10.980;2023-08-07T04:12:25;2.35;;;1.40;;
29210;SDS011;16250;49.932;10.980;2023-08-07T04:14:50;1.75;;;1.58;;
29210;SDS011;16250;49.932;10.980;2023-08-07T04:17:15;1.83;;;1.67;;
29210;SDS011;16250;49.932;10.980;2023-08-07T04:19:41;1.42;;;1.33;;
29210;SDS011;16250;49.932;10.980;2023-08-07T04:22:06;1.65;;;1.48;;
29210;SDS011;16250;49.932;10.980;2023-08-07T04:24:32;5.53;;;1.67;;
29210;SDS011;16250;49.932;10.980;2023-08-07T04:26:57;2.28;;;1.67;;
29210;SDS011;16250;49.932;10.980;2023-08-07T04:29:23;1.65;;;1.45;;
29210;SDS011;16250;49.932;10.980;2023-08-07T04:31:49;1.95;;;1.80;;
29210;SDS011;16250;49.932;10.980;2023-08-07T04:34:17;1.80;;;1.70;;
29210;SDS011;16250;49.932;10.980;2023-08-07T04:36:42;3.83;;;1.90;;
29210;SDS011;16250;49.932;10.980;2023-08-07T04:39:08;1.80;;;1.70;;
29210;SDS011;16250;49.932;10.980;2023-08-07T04:41:33;2.28;;;1.90;;
29210;SDS011;16250;49.932;10.980;2023-08-07T04:43:59;1.92;;;1.80;;
29210;SDS011;16250;49.932;10.980;2023-08-07T04:46:24;2.70;;;1.70;;
29210;SDS011;16250;49.932;10.980;2023-08-07T04:48:49;2.03;;;1.65;;
29210;SDS011;16250;49.932;10.980;2023-08-07T04:51:15;2.78;;;1.90;;
29210;SDS011;16250;49.932;10.980;2023-08-07T04:53:40;1.95;;;1.67;;
29210;SDS011;16250;49.932;10.980;2023-08-07T04:56:06;2.05;;;1.88;;
29210;SDS011;16250;49.932;10.980;2023-08-07T04:58:31;2.20;;;1.95;;
29210;SDS011;16250;49.932;10.980;2023-08-07T05:00:57;1.92;;;1.80;;
29210;SDS011;16250;49.932;10.980;2023-08-07T05:03:23;3.38;;;1.70;;
29210;SDS011;16250;49.932;10.980;2023-08-07T05:05:49;2.58;;;1.98;;
29210;SDS011;16250;49.932;10.980;2023-08-07T05:08:14;3.63;;;2.05;;
29210;SDS011;16250;49.932;10.980;2023-08-07T05:10:40;2.45;;;1.90;;
29210;SDS011;16250;49.932;10.980;2023-08-07T05:13:06;4.47;;;2.00;;
29210;SDS011;16250;49.932;10.980;2023-08-07T05:15:31;3.10;;;2.25;;
29210;SDS011;16250;49.932;10.980;2023-08-07T05:17:57;2.30;;;2.03;;
29210;SDS011;16250;49.932;10.980;2023-08-07T05:20:22;3.08;;;2.25;;
29210;SDS011;16250;49.932;10.980;2023-08-07T05:22:48;2.20;;;2.00;;
29210;SDS011;16250;49.932;10.980;2023-08-07T05:25:13;4.97;;;2.30;;
29210;SDS011;16250;49.932;10.980;2023-08-07T05:27:42;3.30;;;2.22;;
29210;SDS011;16250;49.932;10.980;2023-08-07T05:30:08;3.63;;;2.20;;
29210;SDS011;16250;49.932;10.980;2023-08-07T05:32:34;2.83;;;2.38;;
29210;SDS011;16250;49.932;10.980;2023-08-07T05:35:03;4.00;;;2.65;;
29210;SDS011;16250;49.932;10.980;2023-08-07T05:37:29;3.42;;;2.40;;
29210;SDS011;16250;49.932;10.980;2023-08-07T05:39:56;3.47;;;2.63;;
29210;SDS011;16250;49.932;10.980;2023-08-07T05:42:22;3.55;;;2.50;;
29210;SDS011;16250;49.932;10.980;2023-08-07T05:44:47;4.03;;;2.88;;
29210;SDS011;16250;49.932;10.980;2023-08-07T05:47:12;7.53;;;3.15;;
29210;SDS011;16250;49.932;10.980;2023-08-07T05:49:38;5.85;;;2.85;;
29210;SDS011;16250;49.932;10.980;2023-08-07T05:52:03;4.20;;;2.65;;
29210;SDS011;16250;49.932;10.980;2023-08-07T05:54:29;3.00;;;2.72;;
29210;SDS011;16250;49.932;10.980;2023-08-07T05:56:55;3.78;;;2.70;;
29210;SDS011;16250;49.932;10.980;2023-08-07T05:59:20;4.45;;;2.60;;
29210;SDS011;16250;49.932;10.980;2023-08-07T06:01:45;3.85;;;2.40;;
29210;SDS011;16250;49.932;10.980;2023-08-07T06:04:11;3.13;;;2.80;;
29210;SDS011;16250;49.932;10.980;2023-08-07T06:06:36;3.22;;;2.70;;
29210;SDS011;16250;49.932;10.980;2023-08-07T06:09:04;2.70;;;2.50;;
29210;SDS011;16250;49.932;10.980;2023-08-07T06:11:29;3.67;;;2.80;;
29210;SDS011;16250;49.932;10.980;2023-08-07T06:13:55;3.00;;;2.70;;
29210;SDS011;16250;49.932;10.980;2023-08-07T06:16:20;4.22;;;2.67;;
29210;SDS011;16250;49.932;10.980;2023-08-07T06:18:45;7.55;;;2.97;;
29210;SDS011;16250;49.932;10.980;2023-08-07T06:21:11;5.28;;;2.90;;
29210;SDS011;16250;49.932;10.980;2023-08-07T06:23:36;2.75;;;2.55;;
29210;SDS011;16250;49.932;10.980;2023-08-07T06:26:02;3.88;;;2.78;;
29210;SDS011;16250;49.932;10.980;2023-08-07T06:28:32;5.22;;;2.97;;
29210;SDS011;16250;49.932;10.980;2023-08-07T06:31:05;3.20;;;2.58;;
29210;SDS011;16250;49.932;10.980;2023-08-07T06:33:32;3.78;;;2.63;;
29210;SDS011;16250;49.932;10.980;2023-08-07T06:35:58;4.03;;;2.92;;
29210;SDS011;16250;49.932;10.980;2023-08-07T06:38:24;3.00;;;2.60;;
29210;SDS011;16250;49.932;10.980;2023-08-07T06:40:49;3.42;;;2.53;;
29210;SDS011;16250;49.932;10.980;2023-08-07T06:43:14;3.40;;;2.85;;
29210;SDS011;16250;49.932;10.980;2023-08-07T06:45:40;3.67;;;3.13;;
29210;SDS011;16250;49.932;10.980;2023-08-07T06:48:05;5.88;;;3.13;;
29210;SDS011;16250;49.932;10.980;2023-08-07T06:50:30;7.30;;;3.05;;
29210;SDS011;16250;49.932;10.980;2023-08-07T06:52:56;4.78;;;2.78;;
29210;SDS011;16250;49.932;10.980;2023-08-07T06:55:22;3.95;;;2.80;;
29210;SDS011;16250;49.932;10.980;2023-08-07T06:57:47;4.50;;;3.17;;
29210;SDS011;16250;49.932;10.980;2023-08-07T07:00:13;5.05;;;3.15;;
29210;SDS011;16250;49.932;10.980;2023-08-07T07:02:38;3.38;;;3.08;;
29210;SDS011;16250;49.932;10.980;2023-08-07T07:05:04;3.60;;;3.00;;
29210;SDS011;16250;49.932;10.980;2023-08-07T07:07:30;5.57;;;3.08;;
29210;SDS011;16250;49.932;10.980;2023-08-07T07:09:55;3.92;;;3.10;;
29210;SDS011;16250;49.932;10.980;2023-08-07T07:12:23;3.92;;;2.80;;
29210;SDS011;16250;49.932;10.980;2023-08-07T07:14:48;3.80;;;3.20;;
29210;SDS011;16250;49.932;10.980;2023-08-07T07:17:14;6.53;;;3.50;;
29210;SDS011;16250;49.932;10.980;2023-08-07T07:19:39;3.33;;;2.95;;
29210;SDS011;16250;49.932;10.980;2023-08-07T07:22:05;4.07;;;2.72;;
29210;SDS011;16250;49.932;10.980;2023-08-07T07:24:30;4.30;;;3.03;;
29210;SDS011;16250;49.932;10.980;2023-08-07T07:26:56;4.45;;;3.05;;
29210;SDS011;16250;49.932;10.980;2023-08-07T07:29:21;5.60;;;3.28;;
29210;SDS011;16250;49.932;10.980;2023-08-07T07:31:47;3.70;;;3.30;;
29210;SDS011;16250;49.932;10.980;2023-08-07T07:34:15;3.70;;;3.25;;
29210;SDS011;16250;49.932;10.980;2023-08-07T07:36:40;3.30;;;2.95;;
29210;SDS011;16250;49.932;10.980;2023-08-07T07:39:06;5.13;;;2.88;;
29210;SDS011;16250;49.932;10.980;2023-08-07T07:41:31;3.55;;;3.20;;
29210;SDS011;16250;49.932;10.980;2023-08-07T07:43:57;4.30;;;3.10;;
29210;SDS011;16250;49.932;10.980;2023-08-07T07:46:22;3.45;;;3.15;;
29210;SDS011;16250;49.932;10.980;2023-08-07T07:48:49;3.22;;;2.75;;
29210;SDS011;16250;49.932;10.980;2023-08-07T07:51:14;4.88;;;3.28;;
29210;SDS011;16250;49.932;10.980;2023-08-07T07:53:39;4.45;;;3.03;;
29210;SDS011;16250;49.932;10.980;2023-08-07T07:56:05;5.47;;;3.10;;
29210;SDS011;16250;49.932;10.980;2023-08-07T07:58:30;4.25;;;2.95;;
29210;SDS011;16250;49.932;10.980;2023-08-07T08:00:56;3.63;;;2.90;;
29210;SDS011;16250;49.932;10.980;2023-08-07T08:03:21;3.97;;;2.70;;
29210;SDS011;16250;49.932;10.980;2023-08-07T08:05:49;3.50;;;2.90;;
29210;SDS011;16250;49.932;10.980;2023-08-07T08:08:15;4.20;;;3.30;;
29210;SDS011;16250;49.932;10.980;2023-08-07T08:10:41;3.85;;;3.30;;
29210;SDS011;16250;49.932;10.980;2023-08-07T08:13:08;3.05;;;2.75;;
29210;SDS011;16250;49.932;10.980;2023-08-07T08:15:34;3.40;;;3.10;;
29210;SDS011;16250;49.932;10.980;2023-08-07T08:17:59;3.17;;;2.90;;
29210;SDS011;16250;49.932;10.980;2023-08-07T08:20:25;2.95;;;2.63;;
29210;SDS011;16250;49.932;10.980;2023-08-07T08:22:50;6.70;;;3.05;;
29210;SDS011;16250;49.932;10.980;2023-08-07T08:25:16;6.03;;;3.38;;
29210;SDS011;16250;49.932;10.980;2023-08-07T08:27:42;4.78;;;2.92;;
29210;SDS011;16250;49.932;10.980;2023-08-07T08:30:08;3.53;;;2.75;;
29210;SDS011;16250;49.932;10.980;2023-08-07T08:32:34;5.53;;;3.10;;
29210;SDS011;16250;49.932;10.980;2023-08-07T08:34:59;4.15;;;3.28;;
29210;SDS011;16250;49.932;10.980;2023-08-07T08:37:25;4.53;;;3.00;;
29210;SDS011;16250;49.932;10.980;2023-08-07T08:39:50;3.80;;;3.13;;
29210;SDS011;16250;49.932;10.980;2023-08-07T08:42:16;4.72;;;3.20;;
29210;SDS011;16250;49.932;10.980;2023-08-07T08:45:02;5.50;;;3.40;;
29210;SDS011;16250;49.932;10.980;2023-08-07T08:47:28;4.00;;;3.50;;
29210;SDS011;16250;49.932;10.980;2023-08-07T08:50:15;6.43;;;3.25;;
29210;SDS011;16250;49.932;10.980;2023-08-07T08:52:42;4.68;;;3.47;;
29210;SDS011;16250;49.932;10.980;2023-08-07T08:55:09;5.05;;;3.47;;
29210;SDS011;16250;49.932;10.980;2023-08-07T08:57:35;4.15;;;3.60;;
29210;SDS011;16250;49.932;10.980;2023-08-07T09:00:01;6.38;;;3.70;;
29210;SDS011;16250;49.932;10.980;2023-08-07T09:02:31;5.10;;;3.58;;
29210;SDS011;16250;49.932;10.980;2023-08-07T09:04:57;5.43;;;4.00;;
29210;SDS011;16250;49.932;10.980;2023-08-07T09:07:22;6.25;;;3.90;;
29210;SDS011;16250;49.932;10.980;2023-08-07T09:09:48;5.35;;;3.70;;
29210;SDS011;16250;49.932;10.980;2023-08-07T09:12:22;5.82;;;3.67;;
29210;SDS011;16250;49.932;10.980;2023-08-07T09:14:55;7.30;;;4.25;;
29210;SDS011;16250;49.932;10.980;2023-08-07T09:17:26;5.18;;;4.07;;
29210;SDS011;16250;49.932;10.980;2023-08-07T09:19:54;4.53;;;3.78;;
29210;SDS011;16250;49.932;10.980;2023-08-07T09:22:19;7.13;;;4.38;;
29210;SDS011;16250;49.932;10.980;2023-08-07T09:24:45;4.65;;;4.22;;
29210;SDS011;16250;49.932;10.980;2023-08-07T09:27:11;5.38;;;4.25;;
29210;SDS011;16250;49.932;10.980;2023-08-07T09:29:39;6.35;;;3.88;;
29210;SDS011;16250;49.932;10.980;2023-08-07T09:32:08;6.22;;;4.40;;
29210;SDS011;16250;49.932;10.980;2023-08-07T09:34:34;6.90;;;4.38;;
29210;SDS011;16250;49.932;10.980;2023-08-07T09:36:59;4.32;;;3.90;;
29210;SDS011;16250;49.932;10.980;2023-08-07T09:39:24;4.50;;;4.10;;
29210;SDS011;16250;49.932;10.980;2023-08-07T09:41:51;7.03;;;4.40;;
29210;SDS011;16250;49.932;10.980;2023-08-07T09:44:17;6.78;;;4.47;;
29210;SDS011;16250;49.932;10.980;2023-08-07T09:46:42;9.80;;;4.65;;
29210;SDS011;16250;49.932;10.980;2023-08-07T09:49:08;6.07;;;4.05;;
29210;SDS011;16250;49.932;10.980;2023-08-07T09:51:47;5.70;;;4.13;;
29210;SDS011;16250;49.932;10.980;2023-08-07T09:54:12;8.02;;;4.55;;
29210;SDS011;16250;49.932;10.980;2023-08-07T09:56:39;6.28;;;4.15;;
29210;SDS011;16250;49.932;10.980;2023-08-07T09:59:05;5.78;;;4.03;;
29210;SDS011;16250;49.932;10.980;2023-08-07T10:01:31;5.28;;;4.22;;
29210;SDS011;16250;49.932;10.980;2023-08-07T10:03:57;4.28;;;3.88;;
29210;SDS011;16250;49.932;10.980;2023-08-07T10:06:22;5.72;;;3.83;;
29210;SDS011;16250;49.932;10.980;2023-08-07T10:08:48;9.68;;;3.80;;
29210;SDS011;16250;49.932;10.980;2023-08-07T10:11:14;4.85;;;3.53;;
29210;SDS011;16250;49.932;10.980;2023-08-07T10:13:40;5.50;;;3.78;;
29210;SDS011;16250;49.932;10.980;2023-08-07T10:16:05;5.38;;;4.25;;
29210;SDS011;16250;49.932;10.980;2023-08-07T10:18:31;4.00;;;3.60;;
29210;SDS011;16250;49.932;10.980;2023-08-07T10:20:56;5.43;;;3.45;;
29210;SDS011;16250;49.932;10.980;2023-08-07T10:23:22;4.88;;;3.67;;
29210;SDS011;16250;49.932;10.980;2023-08-07T10:25:48;6.00;;;3.40;;
29210;SDS011;16250;49.932;10.980;2023-08-07T10:28:16;5.95;;;3.63;;
29210;SDS011;16250;49.932;10.980;2023-08-07T10:30:42;5.15;;;3.40;;
29210;SDS011;16250;49.932;10.980;2023-08-07T10:33:09;5.25;;;3.58;;
29210;SDS011;16250;49.932;10.980;2023-08-07T10:35:35;3.63;;;3.17;;
29210;SDS011;16250;49.932;10.980;2023-08-07T10:38:07;7.75;;;3.70;;
29210;SDS011;16250;49.932;10.980;2023-08-07T10:40:33;5.05;;;3.55;;
29210;SDS011;16250;49.932;10.980;2023-08-07T10:43:12;4.68;;;3.50;;
29210;SDS011;16250;49.932;10.980;2023-08-07T10:45:39;7.57;;;3.83;;
29210;SDS011;16250;49.932;10.980;2023-08-07T10:48:05;5.55;;;3.72;;
29210;SDS011;16250;49.932;10.980;2023-08-07T10:50:33;5.68;;;3.13;;
29210;SDS011;16250;49.932;10.980;2023-08-07T10:56:01;7.10;;;3.25;;
29210;SDS011;16250;49.932;10.980;2023-08-07T10:58:32;6.05;;;3.58;;
29210;SDS011;16250;49.932;10.980;2023-08-07T11:03:57;5.00;;;3.42;;
29210;SDS011;16250;49.932;10.980;2023-08-07T11:06:25;3.80;;;3.35;;
29210;SDS011;16250;49.932;10.980;2023-08-07T11:08:52;5.57;;;3.55;;
29210;SDS011;16250;49.932;10.980;2023-08-07T11:11:18;7.78;;;3.55;;
29210;SDS011;16250;49.932;10.980;2023-08-07T11:13:44;4.63;;;3.40;;
29210;SDS011;16250;49.932;10.980;2023-08-07T11:16:09;5.95;;;3.28;;
29210;SDS011;16250;49.932;10.980;2023-08-07T11:18:35;4.30;;;3.38;;
29210;SDS011;16250;49.932;10.980;2023-08-07T11:21:09;3.92;;;3.00;;
29210;SDS011;16250;49.932;10.980;2023-08-07T11:23:36;5.18;;;3.25;;
29210;SDS011;16250;49.932;10.980;2023-08-07T11:26:05;4.22;;;3.05;;
29210;SDS011;16250;49.932;10.980;2023-08-07T11:28:31;5.75;;;3.25;;
29210;SDS011;16250;49.932;10.980;2023-08-07T11:30:56;7.20;;;3.10;;
29210;SDS011;16250;49.932;10.980;2023-08-07T11:33:26;3.70;;;3.10;;
29210;SDS011;16250;49.932;10.980;2023-08-07T11:35:52;4.13;;;3.03;;
29210;SDS011;16250;49.932;10.980;2023-08-07T11:38:32;5.65;;;3.22;;
29210;SDS011;16250;49.932;10.980;2023-08-07T11:41:05;7.35;;;3.00;;
29210;SDS011;16250;49.932;10.980;2023-08-07T11:43:32;4.25;;;2.72;;
29210;SDS011;16250;49.932;10.980;2023-08-07T11:45:58;5.97;;;3.20;;
29210;SDS011;16250;49.932;10.980;2023-08-07T11:48:27;5.10;;;2.97;;
29210;SDS011;16250;49.932;10.980;2023-08-07T11:50:53;5.10;;;2.70;;
29210;SDS011;16250;49.932;10.980;2023-08-07T11:53:22;5.57;;;3.00;;
29210;SDS011;16250;49.932;10.980;2023-08-07T11:55:52;5.22;;;2.80;;
29210;SDS011;16250;49.932;10.980;2023-08-07T11:58:18;5.65;;;3.05;;
29210;SDS011;16250;49.932;10.980;2023-08-07T12:00:44;5.38;;;2.80;;
29210;SDS011;16250;49.932;10.980;2023-08-07T12:03:23;4.80;;;3.03;;
29210;SDS011;16250;49.932;10.980;2023-08-07T12:05:50;4.85;;;3.55;;
29210;SDS011;16250;49.932;10.980;2023-08-07T12:08:15;5.78;;;3.50;;
29210;SDS011;16250;49.932;10.980;2023-08-07T12:10:41;5.97;;;3.42;;
29210;SDS011;16250;49.932;10.980;2023-08-07T12:13:08;5.72;;;3.30;;
29210;SDS011;16250;49.932;10.980;2023-08-07T12:15:33;4.05;;;3.30;;
29210;SDS011;16250;49.932;10.980;2023-08-07T12:18:02;5.53;;;3.55;;
29210;SDS011;16250;49.932;10.980;2023-08-07T12:20:28;5.68;;;3.38;;
29210;SDS011;16250;49.932;10.980;2023-08-07T12:22:53;6.53;;;3.83;;
29210;SDS011;16250;49.932;10.980;2023-08-07T12:25:19;5.45;;;3.30;;
29210;SDS011;16250;49.932;10.980;2023-08-07T12:27:44;4.38;;;3.15;;
29210;SDS011;16250;49.932;10.980;2023-08-07T12:30:12;4.43;;;3.20;;
29210;SDS011;16250;49.932;10.980;2023-08-07T12:32:38;3.88;;;3.05;;
29210;SDS011;16250;49.932;10.980;2023-08-07T12:35:03;3.10;;;2.80;;
29210;SDS011;16250;49.932;10.980;2023-08-07T12:37:32;4.32;;;3.47;;
29210;SDS011;16250;49.932;10.980;2023-08-07T12:39:58;5.15;;;2.80;;
29210;SDS011;16250;49.932;10.980;2023-08-07T12:42:23;4.07;;;3.03;;
29210;SDS011;16250;49.932;10.980;2023-08-07T12:44:49;4.35;;;2.97;;
29210;SDS011;16250;49.932;10.980;2023-08-07T12:47:14;3.75;;;2.97;;
29210;SDS011;16250;49.932;10.980;2023-08-07T12:49:39;4.50;;;2.88;;
29210;SDS011;16250;49.932;10.980;2023-08-07T12:52:05;4.38;;;2.60;;
29210;SDS011;16250;49.932;10.980;2023-08-07T12:54:30;3.80;;;2.50;;
29210;SDS011;16250;49.932;10.980;2023-08-07T12:56:56;3.03;;;2.33;;
29210;SDS011;16250;49.932;10.980;2023-08-07T12:59:22;4.47;;;2.60;;
29210;SDS011;16250;49.932;10.980;2023-08-07T13:01:47;4.00;;;2.60;;
29210;SDS011;16250;49.932;10.980;2023-08-07T13:04:13;4.63;;;2.70;;
29210;SDS011;16250;49.932;10.980;2023-08-07T13:06:40;4.07;;;2.65;;
29210;SDS011;16250;49.932;10.980;2023-08-07T13:09:06;5.15;;;2.63;;
29210;SDS011;16250;49.932;10.980;2023-08-07T13:11:32;3.58;;;2.80;;
29210;SDS011;16250;49.932;10.980;2023-08-07T13:13:58;2.72;;;2.53;;
29210;SDS011;16250;49.932;10.980;2023-08-07T13:16:23;4.43;;;2.80;;
29210;SDS011;16250;49.932;10.980;2023-08-07T13:18:49;3.55;;;2.70;;
29210;SDS011;16250;49.932;10.980;2023-08-07T13:21:16;3.65;;;3.13;;
29210;SDS011;16250;49.932;10.980;2023-08-07T13:23:42;4.35;;;2.80;;
29210;SDS011;16250;49.932;10.980;2023-08-07T13:26:08;4.32;;;2.90;;
29210;SDS011;16250;49.932;10.980;2023-08-07T13:28:33;3.58;;;3.15;;
29210;SDS011;16250;49.932;10.980;2023-08-07T13:30:58;3.28;;;2.83;;
29210;SDS011;16250;49.932;10.980;2023-08-07T13:33:24;3.97;;;2.90;;
29210;SDS011;16250;49.932;10.980;2023-08-07T13:35:49;4.10;;;2.90;;
29210;SDS011;16250;49.932;10.980;2023-08-07T13:38:15;3.15;;;2.85;;
29210;SDS011;16250;49.932;10.980;2023-08-07T13:40:43;5.10;;;3.10;;
29210;SDS011;16250;49.932;10.980;2023-08-07T13:43:10;3.45;;;3.15;;
29210;SDS011;16250;49.932;10.980;2023-08-07T13:45:36;3.85;;;2.90;;
29210;SDS011;16250;49.932;10.980;2023-08-07T13:48:02;4.20;;;3.22;;
29210;SDS011;16250;49.932;10.980;2023-08-07T13:50:27;3.63;;;2.85;;
29210;SDS011;16250;49.932;10.980;2023-08-07T13:52:53;4.43;;;2.95;;
29210;SDS011;16250;49.932;10.980;2023-08-07T13:55:18;4.97;;;2.75;;
29210;SDS011;16250;49.932;10.980;2023-08-07T13:57:44;2.97;;;2.72;;
29210;SDS011;16250;49.932;10.980;2023-08-07T14:00:09;3.05;;;2.65;;
29210;SDS011;16250;49.932;10.980;2023-08-07T14:02:36;2.85;;;2.40;;
29210;SDS011;16250;49.932;10.980;2023-08-07T14:05:01;4.00;;;2.80;;
29210;SDS011;16250;49.932;10.980;2023-08-07T14:07:27;4.95;;;2.88;;
29210;SDS011;16250;49.932;10.980;2023-08-07T14:09:52;2.70;;;2.50;;
29210;SDS011;16250;49.932;10.980;2023-08-07T14:12:17;5.65;;;2.78;;
29210;SDS011;16250;49.932;10.980;2023-08-07T14:14:43;2.95;;;2.35;;
29210;SDS011;16250;49.932;10.980;2023-08-07T14:17:08;3.78;;;2.53;;
29210;SDS011;16250;49.932;10.980;2023-08-07T14:19:33;2.65;;;2.30;;
29210;SDS011;16250;49.932;10.980;2023-08-07T14:21:59;2.80;;;2.60;;
29210;SDS011;16250;49.932;10.980;2023-08-07T14:24:25;2.45;;;2.20;;
29210;SDS011;16250;49.932;10.980;2023-08-07T14:26:50;3.15;;;2.45;;
29210;SDS011;16250;49.932;10.980;2023-08-07T14:29:15;2.28;;;2.03;;
29210;SDS011;16250;49.932;10.980;2023-08-07T14:31:41;4.30;;;2.40;;
29210;SDS011;16250;49.932;10.980;2023-08-07T14:34:06;2.85;;;2.33;;
29210;SDS011;16250;49.932;10.980;2023-08-07T14:36:32;3.00;;;2.10;;